createdAt,value
2022-12-29T00:01:31.796Z,99334.53
2022-12-29T00:04:20.275Z,99328.34
2022-12-29T00:07:08.973Z,99319.00
2022-12-29T00:09:57.364Z,99322.22
2022-12-29T00:13:03.790Z,99333.59
2022-12-29T00:15:53.666Z,99325.00
2022-12-29T00:18:42.073Z,99333.50
2022-12-29T00:21:48.226Z,99329.09
2022-12-29T00:24:54.337Z,99326.50
2022-12-29T00:28:06.353Z,99324.72
2022-12-29T00:31:18.617Z,99329.09
2022-12-29T00:34:27.967Z,99324.00
2022-12-29T00:37:16.433Z,99324.06
2022-12-29T00:40:23.542Z,99327.59
2022-12-29T00:43:29.893Z,99309.50
2022-12-29T00:46:20.364Z,99312.16
2022-12-29T00:49:27.463Z,99299.34
2022-12-29T00:52:16.044Z,99302.00
2022-12-29T00:55:07.878Z,99307.25
2022-12-29T00:57:56.321Z,99311.53
2022-12-29T01:00:44.767Z,99303.03
2022-12-29T01:03:36.509Z,99306.53
2022-12-29T01:06:25.099Z,99294.53
2022-12-29T01:09:31.433Z,99305.69
2022-12-29T01:12:40.728Z,99295.28
2022-12-29T01:15:31.217Z,99292.47
2022-12-29T01:18:19.831Z,99291.56
2022-12-29T01:21:09.574Z,99290.63
2022-12-29T01:23:58.164Z,99303.50
2022-12-29T01:26:46.693Z,99289.72
2022-12-29T01:29:35.076Z,99292.31
2022-12-29T01:32:23.460Z,99306.06
2022-12-29T01:35:11.971Z,99289.63
2022-12-29T01:38:01.769Z,99302.47
2022-12-29T01:40:50.150Z,99292.94
2022-12-29T01:43:43.510Z,99294.78
2022-12-29T01:46:34.979Z,99315.59
2022-12-29T01:49:24.807Z,99309.56
2022-12-29T01:52:13.178Z,99316.50
2022-12-29T01:55:03.034Z,99310.50
2022-12-29T01:57:52.945Z,99305.41
2022-12-29T02:00:41.413Z,99303.75
2022-12-29T02:03:30.515Z,99303.56
2022-12-29T02:06:22.066Z,99304.13
2022-12-29T02:09:10.477Z,99314.19
2022-12-29T02:12:00.326Z,99314.94
2022-12-29T02:14:48.859Z,99312.16
2022-12-29T02:17:58.183Z,99325.94
2022-12-29T02:21:36.707Z,99311.16
2022-12-29T02:25:01.465Z,99298.22
2022-12-29T02:27:58.442Z,99306.72
2022-12-29T02:30:55.171Z,99324.00
2022-12-29T02:33:53.990Z,99296.53
2022-12-29T02:36:45.470Z,99296.38
2022-12-29T02:39:38.544Z,99286.84
2022-12-29T02:42:33.368Z,99287.84
2022-12-29T02:45:24.665Z,99278.41
2022-12-29T02:48:17.932Z,99275.75
2022-12-29T02:51:09.410Z,99282.69
2022-12-29T02:54:15.389Z,99267.78
2022-12-29T02:57:03.745Z,99260.97
2022-12-29T02:59:55.422Z,99254.50
2022-12-29T03:03:02.678Z,99263.09
2022-12-29T03:06:07.307Z,99258.66
2022-12-29T03:09:00.737Z,99254.38
2022-12-29T03:12:10.449Z,99244.25
2022-12-29T03:15:22.126Z,99235.66
2022-12-29T03:18:15.208Z,99244.31
2022-12-29T03:21:07.372Z,99241.84
2022-12-29T03:23:56.204Z,99242.03
2022-12-29T03:26:44.625Z,99241.19
2022-12-29T03:29:36.493Z,99221.44
2022-12-29T03:32:27.790Z,99225.50
2022-12-29T03:35:18.729Z,99210.69
2022-12-29T03:38:12.942Z,99216.53
2022-12-29T03:41:02.463Z,99225.94
2022-12-29T03:43:52.052Z,99220.75
2022-12-29T03:46:40.545Z,99215.56
2022-12-29T03:49:29.436Z,99219.84
2022-12-29T03:52:17.841Z,99211.25
2022-12-29T03:55:10.347Z,99196.34
2022-12-29T03:58:00.834Z,99198.03
2022-12-29T04:01:03.233Z,99184.97
2022-12-29T04:03:54.392Z,99192.66
2022-12-29T04:06:42.990Z,99197.00
2022-12-29T04:09:32.328Z,99201.16
2022-12-29T04:12:22.426Z,99198.56
2022-12-29T04:15:11.880Z,99187.31
2022-12-29T04:18:00.294Z,99196.72
2022-12-29T04:21:04.950Z,99192.19
2022-12-29T04:23:55.584Z,99195.59
2022-12-29T04:26:44.207Z,99197.25
2022-12-29T04:30:00.565Z,99196.34
2022-12-29T04:33:04.398Z,99195.38
2022-12-29T04:35:53.987Z,99202.25
2022-12-29T04:38:43.103Z,99190.13
2022-12-29T04:41:32.124Z,99185.69
2022-12-29T04:44:20.707Z,99192.41
2022-12-29T04:47:33.558Z,99179.47
2022-12-29T04:50:50.172Z,99170.78
2022-12-29T04:53:40.537Z,99194.81
2022-12-29T04:56:29.749Z,99186.97
2022-12-29T04:59:19.765Z,99189.47
2022-12-29T05:02:11.110Z,99186.78
2022-12-29T05:05:01.236Z,99193.53
2022-12-29T05:07:49.785Z,99202.94
2022-12-29T05:10:38.527Z,99208.13
2022-12-29T05:13:32.674Z,99213.31
2022-12-29T05:16:22.192Z,99208.13
2022-12-29T05:19:10.756Z,99212.47
2022-12-29T05:22:01.255Z,99213.31
2022-12-29T05:24:49.990Z,99204.81
2022-12-29T05:27:38.592Z,99219.50
2022-12-29T05:30:32.464Z,99206.47
2022-12-29T05:33:21.043Z,99197.78
2022-12-29T05:36:15.791Z,99210.72
2022-12-29T05:39:12.747Z,99198.50
2022-12-29T05:42:01.189Z,99198.41
2022-12-29T05:45:10.382Z,99193.13
2022-12-29T05:48:18.039Z,99190.44
2022-12-29T05:51:17.350Z,99185.34
2022-12-29T05:54:14.252Z,99186.28
2022-12-29T05:57:03.043Z,99193.13
2022-12-29T05:59:52.940Z,99205.25
2022-12-29T06:02:42.583Z,99201.84
2022-12-29T06:05:31.204Z,99194.06
2022-12-29T06:08:20.191Z,99183.88
2022-12-29T06:11:11.756Z,99192.38
2022-12-29T06:14:02.906Z,99186.22
2022-12-29T06:16:51.396Z,99188.69
2022-12-29T06:19:39.898Z,99179.78
2022-12-29T06:22:28.859Z,99183.13
2022-12-29T06:25:17.643Z,99182.06
2022-12-29T06:28:08.029Z,99184.56
2022-12-29T06:30:58.911Z,99174.22
2022-12-29T06:33:50.020Z,99177.63
2022-12-29T06:36:38.917Z,99173.28
2022-12-29T06:39:27.358Z,99170.69
2022-12-29T06:42:26.449Z,99169.84
2022-12-29T06:45:36.533Z,99165.50
2022-12-29T06:48:24.909Z,99176.72
2022-12-29T06:51:13.307Z,99175.78
2022-12-29T06:54:01.703Z,99179.19
2022-12-29T06:56:50.089Z,99176.59
2022-12-29T06:59:38.504Z,99177.53
2022-12-29T07:02:28.351Z,99178.44
2022-12-29T07:04:56.447Z,99171.31
2022-12-29T07:07:24.648Z,99169.47
2022-12-29T07:09:52.793Z,99166.75
2022-12-29T07:12:21.158Z,99169.25
2022-12-29T07:14:49.656Z,99162.31
2022-12-29T07:17:17.832Z,99168.22
2022-12-29T07:19:47.335Z,99176.72
2022-12-29T07:22:15.442Z,99164.72
2022-12-29T07:24:44.178Z,99164.50
2022-12-29T07:27:12.317Z,99174.69
2022-12-29T07:29:40.488Z,99169.59
2022-12-29T07:32:08.649Z,99174.69
2022-12-29T07:34:36.883Z,99172.78
2022-12-29T07:37:06.315Z,99174.91
2022-12-29T07:39:34.438Z,99175.75
2022-12-29T07:42:05.065Z,99179.56
2022-12-29T07:44:40.502Z,99183.94
2022-12-29T07:47:18.158Z,99179.78
2022-12-29T07:49:46.319Z,99186.00
2022-12-29T07:52:15.769Z,99191.28
2022-12-29T07:54:43.892Z,99195.00
2022-12-29T07:57:12.007Z,99202.69
2022-12-29T07:59:40.155Z,99199.16
2022-12-29T08:02:08.473Z,99199.16
2022-12-29T08:04:36.671Z,99204.34
2022-12-29T08:07:04.837Z,99209.34
2022-12-29T08:09:34.393Z,99213.78
2022-12-29T08:12:02.486Z,99217.28
2022-12-29T08:14:30.615Z,99221.56
2022-12-29T08:16:58.684Z,99218.84
2022-12-29T08:19:26.750Z,99229.13
2022-12-29T08:21:55.112Z,99229.03
2022-12-29T08:24:23.370Z,99224.66
2022-12-29T08:26:53.648Z,99238.34
2022-12-29T08:29:22.395Z,99239.19
2022-12-29T08:31:50.480Z,99231.31
2022-12-29T08:34:18.529Z,99235.47
2022-12-29T08:36:46.645Z,99241.28
2022-12-29T08:39:14.767Z,99254.03
2022-12-29T08:41:43.087Z,99236.72
2022-12-29T08:44:12.545Z,99241.91
2022-12-29T08:46:40.876Z,99241.91
2022-12-29T08:49:08.988Z,99244.41
2022-12-29T08:51:37.707Z,99247.72
2022-12-29T08:54:05.948Z,99251.94
2022-12-29T08:56:34.183Z,99245.13
2022-12-29T08:59:02.531Z,99246.03
2022-12-29T09:01:34.691Z,99242.53
2022-12-29T09:04:18.673Z,99239.00
2022-12-29T09:06:47.341Z,99237.22
2022-12-29T09:09:15.564Z,99243.13
2022-12-29T09:11:44.226Z,99253.50
2022-12-29T09:14:12.345Z,99244.69
2022-12-29T09:17:00.133Z,99250.59
2022-12-29T09:19:28.266Z,99248.97
2022-12-29T09:21:56.364Z,99255.06
2022-12-29T09:24:24.850Z,99261.19
2022-12-29T09:26:52.951Z,99257.88
2022-12-29T09:29:21.094Z,99261.41
2022-12-29T09:31:50.544Z,99270.09
2022-12-29T09:34:18.792Z,99259.72
2022-12-29T09:36:46.878Z,99263.28
2022-12-29T09:39:15.015Z,99267.81
2022-12-29T09:41:48.626Z,99261.91
2022-12-29T09:44:21.106Z,99262.03
2022-12-29T09:46:51.648Z,99267.19
2022-12-29T09:49:26.418Z,99280.97
2022-12-29T09:51:56.704Z,99284.63
2022-12-29T09:54:59.800Z,99304.63
2022-12-29T09:57:34.729Z,99300.34
2022-12-29T10:00:07.028Z,99300.16
2022-12-29T10:02:43.880Z,99287.72
2022-12-29T10:05:29.339Z,99290.00
2022-12-29T10:08:06.757Z,99296.66
2022-12-29T10:10:38.772Z,99294.81
2022-12-29T10:13:23.372Z,99292.81
2022-12-29T10:16:03.023Z,99295.84
2022-12-29T10:19:06.759Z,99298.34
2022-12-29T10:21:45.347Z,99300.94
2022-12-29T10:24:14.442Z,99299.28
2022-12-29T10:26:44.906Z,99295.22
2022-12-29T10:29:17.725Z,99307.34
2022-12-29T10:31:48.418Z,99317.84
2022-12-29T10:34:22.832Z,99324.88
2022-12-29T10:36:52.098Z,99324.16
2022-12-29T10:39:25.064Z,99298.94
2022-12-29T10:41:58.035Z,99289.41
2022-12-29T10:44:26.218Z,99303.31
2022-12-29T10:46:58.334Z,99283.41
2022-12-29T10:49:28.751Z,99294.69
2022-12-29T10:51:59.512Z,99292.50
2022-12-29T10:54:30.092Z,99288.91
2022-12-29T10:57:01.877Z,99296.69
2022-12-29T10:59:32.667Z,99287.97
2022-12-29T11:02:18.953Z,99286.31
2022-12-29T11:04:54.420Z,99292.94
2022-12-29T11:07:27.046Z,99286.94
2022-12-29T11:09:55.588Z,99284.84
2022-12-29T11:12:26.136Z,99299.59
2022-12-29T11:15:13.485Z,99288.47
2022-12-29T11:17:48.551Z,99306.53
2022-12-29T11:20:35.819Z,99310.25
2022-12-29T11:23:04.391Z,99299.97
2022-12-29T11:25:32.563Z,99317.44
2022-12-29T11:28:05.100Z,99314.28
2022-12-29T11:30:34.024Z,99315.41
2022-12-29T11:33:04.715Z,99320.91
2022-12-29T11:35:37.454Z,99338.44
2022-12-29T11:38:14.653Z,99318.00
2022-12-29T11:40:42.786Z,99332.91
2022-12-29T11:43:20.136Z,99316.09
2022-12-29T11:45:48.413Z,99324.19
2022-12-29T11:48:18.836Z,99309.97
2022-12-29T11:50:53.616Z,99309.53
2022-12-29T11:53:23.728Z,99301.09
2022-12-29T11:55:54.850Z,99304.19
2022-12-29T11:58:22.974Z,99305.19
2022-12-29T12:00:51.284Z,99314.66
2022-12-29T12:03:21.068Z,99305.31
2022-12-29T12:05:53.542Z,99304.59
2022-12-29T12:08:25.673Z,99314.22
2022-12-29T12:10:57.910Z,99309.31
2022-12-29T12:13:29.533Z,99312.75
2022-12-29T12:16:01.238Z,99309.41
2022-12-29T12:18:39.700Z,99312.75
2022-12-29T12:21:15.579Z,99311.78
2022-12-29T12:23:59.261Z,99299.19
2022-12-29T12:26:32.504Z,99304.00
2022-12-29T12:29:03.029Z,99306.19
2022-12-29T12:31:44.106Z,99311.69
2022-12-29T12:34:16.354Z,99307.94
2022-12-29T12:37:07.365Z,99299.34
2022-12-29T12:39:42.581Z,99293.56
2022-12-29T12:42:24.926Z,99291.50
2022-12-29T12:44:58.743Z,99312.84
2022-12-29T12:47:41.446Z,99289.63
2022-12-29T12:50:18.013Z,99300.72
2022-12-29T12:53:09.440Z,99287.75
2022-12-29T12:55:51.264Z,99296.56
2022-12-29T12:58:26.664Z,99296.69
2022-12-29T13:01:05.227Z,99297.91
2022-12-29T13:03:45.854Z,99297.28
2022-12-29T13:06:20.678Z,99294.16
2022-12-29T13:09:20.600Z,99285.56
2022-12-29T13:12:01.665Z,99294.38
2022-12-29T13:14:40.101Z,99291.13
2022-12-29T13:17:12.090Z,99293.94
2022-12-29T13:19:43.212Z,99282.34
2022-12-29T13:22:14.472Z,99291.09
2022-12-29T13:24:53.194Z,99293.84
2022-12-29T13:27:25.619Z,99285.66
2022-12-29T13:30:01.753Z,99290.22
2022-12-29T13:32:41.302Z,99303.50
2022-12-29T13:35:48.100Z,99294.25
2022-12-29T13:38:20.839Z,99292.97
2022-12-29T13:40:53.016Z,99283.63
2022-12-29T13:43:21.107Z,99282.06
2022-12-29T13:45:51.699Z,99288.19
2022-12-29T13:48:22.017Z,99288.50
2022-12-29T13:50:56.624Z,99280.00
2022-12-29T13:53:39.665Z,99276.66
2022-12-29T13:56:12.238Z,99293.97
2022-12-29T13:58:44.674Z,99290.66
2022-12-29T14:01:16.752Z,99296.97
2022-12-29T14:03:49.035Z,99305.63
2022-12-29T14:06:25.015Z,99306.78
2022-12-29T14:08:57.970Z,99305.31
2022-12-29T14:11:33.393Z,99307.34
2022-12-29T14:14:01.553Z,99314.06
2022-12-29T14:16:32.454Z,99326.66
2022-12-29T14:19:14.460Z,99316.94
2022-12-29T14:21:42.584Z,99315.56
2022-12-29T14:24:40.890Z,99322.03
2022-12-29T14:27:53.169Z,99338.03
2022-12-29T14:30:52.572Z,99337.47
2022-12-29T14:33:22.761Z,99337.56
2022-12-29T14:35:54.037Z,99344.78
2022-12-29T14:38:25.303Z,99345.88
2022-12-29T14:40:53.457Z,99347.28
2022-12-29T14:43:27.065Z,99352.19
2022-12-29T14:45:58.795Z,99346.06
2022-12-29T14:48:38.339Z,99359.63
2022-12-29T14:51:28.125Z,99362.81
2022-12-29T14:53:56.347Z,99360.97
2022-12-29T14:56:27.996Z,99364.97
2022-12-29T14:58:58.626Z,99362.75
2022-12-29T15:01:40.493Z,99353.69
2022-12-29T15:04:17.431Z,99374.53
2022-12-29T15:06:46.917Z,99384.00
2022-12-29T15:09:26.524Z,99379.84
2022-12-29T15:11:57.102Z,99375.53
2022-12-29T15:14:37.888Z,99362.50
2022-12-29T15:17:12.907Z,99365.69
2022-12-29T15:19:41.014Z,99373.19
2022-12-29T15:22:10.385Z,99362.66
2022-12-29T15:24:42.788Z,99336.81
2022-12-29T15:27:14.869Z,99363.47
2022-12-29T15:29:45.740Z,99358.31
2022-12-29T15:32:25.655Z,99360.75
2022-12-29T15:34:54.830Z,99366.75
2022-12-29T15:37:25.398Z,99372.72
2022-12-29T15:39:54.699Z,99371.16
2022-12-29T15:42:47.530Z,99386.00
2022-12-29T15:45:16.975Z,99397.41
2022-12-29T15:47:47.556Z,99396.84
2022-12-29T15:50:23.924Z,99409.94
2022-12-29T15:52:52.358Z,99397.53
2022-12-29T15:55:24.012Z,99409.00
2022-12-29T15:57:52.126Z,99423.69
2022-12-29T16:00:27.350Z,99411.84
2022-12-29T16:02:56.361Z,99412.03
2022-12-29T16:05:24.693Z,99413.09
2022-12-29T16:07:57.144Z,99411.53
2022-12-29T16:10:31.359Z,99415.19
2022-12-29T16:13:07.983Z,99418.84
2022-12-29T16:15:37.457Z,99425.00
2022-12-29T16:18:05.680Z,99427.66
2022-12-29T16:20:40.534Z,99427.03
2022-12-29T16:23:14.631Z,99431.50
2022-12-29T16:25:42.767Z,99444.47
2022-12-29T16:28:19.396Z,99436.66
2022-12-29T16:30:48.976Z,99438.75
2022-12-29T16:33:38.994Z,99446.59
2022-12-29T16:36:24.747Z,99447.50
2022-12-29T16:38:52.938Z,99444.34
2022-12-29T16:41:33.827Z,99452.28
2022-12-29T16:44:15.498Z,99455.00
2022-12-29T16:46:58.002Z,99460.50
2022-12-29T16:49:26.213Z,99458.84
2022-12-29T16:51:55.669Z,99450.16
2022-12-29T16:54:25.564Z,99460.50
2022-12-29T16:56:53.953Z,99462.09
2022-12-29T16:59:30.352Z,99467.03
2022-12-29T17:02:00.542Z,99463.31
2022-12-29T17:04:28.955Z,99473.50
2022-12-29T17:06:57.079Z,99465.78
2022-12-29T17:09:26.562Z,99467.34
2022-12-29T17:12:02.509Z,99481.00
2022-12-29T17:14:41.041Z,99482.53
2022-12-29T17:17:20.121Z,99468.66
2022-12-29T17:19:51.592Z,99484.09
2022-12-29T17:22:24.961Z,99480.69
2022-12-29T17:24:53.370Z,99469.50
2022-12-29T17:27:30.843Z,99477.34
2022-12-29T17:30:01.610Z,99485.94
2022-12-29T17:32:31.223Z,99486.84
2022-12-29T17:34:59.384Z,99482.59
2022-12-29T17:37:34.737Z,99471.59
2022-12-29T17:40:03.572Z,99465.50
2022-12-29T17:42:32.895Z,99456.94
2022-12-29T17:45:02.300Z,99446.69
2022-12-29T17:47:31.763Z,99452.53
2022-12-29T17:49:59.879Z,99461.03
2022-12-29T17:52:28.010Z,99454.16
2022-12-29T17:54:56.506Z,99459.53
2022-12-29T17:57:24.632Z,99461.34
2022-12-29T17:59:52.699Z,99463.19
2022-12-29T18:02:30.479Z,99453.84
2022-12-29T18:05:00.501Z,99447.00
2022-12-29T18:07:35.395Z,99447.81
2022-12-29T18:10:04.684Z,99446.19
2022-12-29T18:12:37.024Z,99448.84
2022-12-29T18:15:05.966Z,99454.84
2022-12-29T18:17:34.132Z,99459.28
2022-12-29T18:20:03.606Z,99460.16
2022-12-29T18:22:32.222Z,99462.00
2022-12-29T18:25:01.892Z,99454.34
2022-12-29T18:27:30.286Z,99451.78
2022-12-29T18:29:58.362Z,99436.34
2022-12-29T18:32:27.938Z,99450.16
2022-12-29T18:34:56.001Z,99457.16
2022-12-29T18:37:25.438Z,99453.75
2022-12-29T18:39:53.587Z,99458.84
2022-12-29T18:42:22.318Z,99447.81
2022-12-29T18:44:50.573Z,99455.69
2022-12-29T18:47:18.741Z,99471.31
2022-12-29T18:49:46.934Z,99470.66
2022-12-29T18:52:15.027Z,99469.81
2022-12-29T18:54:44.549Z,99465.00
2022-12-29T18:57:12.696Z,99466.81
2022-12-29T18:59:41.135Z,99479.88
2022-12-29T19:02:16.759Z,99471.53
2022-12-29T19:04:47.791Z,99475.97
2022-12-29T19:07:18.233Z,99462.41
2022-12-29T19:09:47.710Z,99472.63
2022-12-29T19:12:16.057Z,99466.69
2022-12-29T19:14:44.377Z,99472.78
2022-12-29T19:17:13.082Z,99472.97
2022-12-29T19:19:41.252Z,99472.28
2022-12-29T19:22:09.479Z,99467.94
2022-12-29T19:24:37.675Z,99467.94
2022-12-29T19:27:07.235Z,99462.94
2022-12-29T19:29:35.398Z,99469.00
2022-12-29T19:32:03.570Z,99468.25
2022-12-29T19:34:31.755Z,99466.44
2022-12-29T19:36:59.859Z,99465.44
2022-12-29T19:39:29.509Z,99466.13
2022-12-29T19:42:03.500Z,99471.28
2022-12-29T19:44:35.100Z,99475.53
2022-12-29T19:47:04.222Z,99476.25
2022-12-29T19:49:32.923Z,99483.13
2022-12-29T19:52:01.114Z,99478.13
2022-12-29T19:54:29.461Z,99481.44
2022-12-29T19:56:58.147Z,99484.94
2022-12-29T19:59:27.142Z,99490.03
2022-12-29T20:01:57.722Z,99498.59
2022-12-29T20:04:26.309Z,99494.19
2022-12-29T20:06:54.842Z,99491.63
2022-12-29T20:09:23.233Z,99502.75
2022-12-29T20:11:51.732Z,99492.44
2022-12-29T20:14:20.039Z,99482.94
2022-12-29T20:17:10.202Z,99490.78
2022-12-29T20:19:39.758Z,99478.13
2022-12-29T20:22:09.346Z,99493.25
2022-12-29T20:24:38.689Z,99493.44
2022-12-29T20:27:08.648Z,99510.81
2022-12-29T20:29:39.878Z,99517.91
2022-12-29T20:32:08.569Z,99530.81
2022-12-29T20:34:38.435Z,99545.53
2022-12-29T20:37:06.934Z,99525.66
2022-12-29T20:39:35.760Z,99524.13
2022-12-29T20:42:04.288Z,99531.88
2022-12-29T20:44:33.223Z,99550.06
2022-12-29T20:47:03.731Z,99546.91
2022-12-29T20:49:35.222Z,99541.75
2022-12-29T20:52:07.139Z,99543.50
2022-12-29T20:54:39.517Z,99552.06
2022-12-29T20:57:08.837Z,99535.69
2022-12-29T20:59:37.669Z,99533.88
2022-12-29T21:02:06.826Z,99539.09
2022-12-29T21:08:07.021Z,99529.91
2022-12-29T21:10:56.058Z,99530.66
2022-12-29T21:13:44.964Z,99537.63
2022-12-29T21:16:33.962Z,99542.81
2022-12-29T21:19:23.011Z,99536.88
2022-12-29T21:22:11.880Z,99535.97
2022-12-29T21:25:02.327Z,99549.78
2022-12-29T21:27:51.194Z,99548.13
2022-12-29T21:30:40.356Z,99553.28
2022-12-29T21:33:29.186Z,99566.19
2022-12-29T21:36:18.027Z,99560.25
2022-12-29T21:39:06.747Z,99568.16
2022-12-29T21:42:00.301Z,99572.47
2022-12-29T21:45:07.073Z,99563.13
2022-12-29T21:48:15.906Z,99580.22
2022-12-29T21:51:30.436Z,99577.72
2022-12-29T21:54:37.395Z,99577.84
2022-12-29T21:57:45.225Z,99591.63
2022-12-29T22:00:51.485Z,99602.91
2022-12-29T22:03:58.190Z,99598.81
2022-12-29T22:07:04.710Z,99610.84
2022-12-29T22:10:11.013Z,99603.28
2022-12-29T22:13:01.561Z,99618.06
2022-12-29T22:15:49.955Z,99610.63
2022-12-29T22:18:38.512Z,99625.25
2022-12-29T22:21:26.877Z,99639.13
2022-12-29T22:24:15.288Z,99639.34
2022-12-29T22:27:03.706Z,99640.34
2022-12-29T22:29:53.417Z,99653.38
2022-12-29T22:32:42.266Z,99661.88
2022-12-29T22:35:30.641Z,99661.03
2022-12-29T22:38:18.991Z,99667.03
2022-12-29T22:41:07.391Z,99668.69
2022-12-29T22:43:56.322Z,99674.00
2022-12-29T22:46:46.078Z,99679.94
2022-12-29T22:49:34.525Z,99681.53
2022-12-29T22:52:22.899Z,99686.53
2022-12-29T22:55:11.353Z,99686.53
2022-12-29T22:57:59.700Z,99690.88
2022-12-29T23:00:48.097Z,99689.19
2022-12-29T23:03:38.280Z,99687.69
2022-12-29T23:06:26.775Z,99695.53
2022-12-29T23:09:17.953Z,99692.34
2022-12-29T23:12:06.539Z,99691.69
2022-12-29T23:14:55.061Z,99690.00
2022-12-29T23:17:43.498Z,99690.81
2022-12-29T23:20:33.216Z,99692.63
2022-12-29T23:23:35.542Z,99691.97
2022-12-29T23:26:25.747Z,99695.72
2022-12-29T23:29:16.236Z,99688.88
2022-12-29T23:32:04.641Z,99685.63
2022-12-29T23:34:52.995Z,99689.16
2022-12-29T23:37:42.724Z,99700.38
2022-12-29T23:40:31.090Z,99697.03
2022-12-29T23:43:19.529Z,99699.59
2022-12-29T23:46:09.122Z,99690.50
2022-12-29T23:48:57.763Z,99706.16
2022-12-29T23:51:46.187Z,99703.63
2022-12-29T23:54:35.874Z,99714.09
2022-12-29T23:57:24.247Z,99726.19
